WetterOnline ( https://www.wetteronline.de )

Wetter aktuell Merzig

Aktuelles Wetter: Berus (367m)

6-stündlich | Neueste Meldungen
Ortszeit Temperatur Wetter
Mo, 05.12. 13:00 2.8° C Nebel
Mo, 05.12. 7:00 0.8° C Nebel
Mo, 05.12. 1:00 0.2° C Nebel
So, 04.12. 19:00 0.6° C leichter Regen
So, 04.12. 13:00 0.3° C bedeckt
So, 04.12. 7:00 -0.1° C bedeckt
So, 04.12. 1:00 0.7° C bedeckt
Sa, 03.12. 19:00 1.1° C bedeckt
Ortszeit Temperatur Wetter
Mo, 05.12. 18:30 2.7° C Sprühregen
Mo, 05.12. 18:20 2.7° C Sprühregen
Mo, 05.12. 18:10 2.8° C Sprühregen
Mo, 05.12. 18:00 3.0° C Nebel
Mo, 05.12. 17:50 3.0° C Nebel
Mo, 05.12. 17:40 3.0° C Nebel
Mo, 05.12. 17:30 3.0° C Sprühregen
Mo, 05.12. 17:00 3.0° C Nebel
Mo, 05.12. 16:30 3.0° C bedeckt
Mo, 05.12. 16:00 3.0° C bedeckt
Mo, 05.12. 15:30 3.0° C Sprühregen
Ortszeit Relative Feuchte Sichtweite
Mo, 05.12. 13:00 99% 9 km
Mo, 05.12. 7:00 99% 0.2 km
Mo, 05.12. 1:00 99% 0.2 km
So, 04.12. 19:00 99% 2.0 km
So, 04.12. 13:00 94% 11 km
So, 04.12. 7:00 92% 12 km
So, 04.12. 1:00 90% 14 km
Sa, 03.12. 19:00 88% 16 km
Ortszeit Relative Feuchte Sichtweite
Mo, 05.12. 18:30 100% 5.0 km
Mo, 05.12. 18:20 100% -
Mo, 05.12. 18:10 99% -
Mo, 05.12. 18:00 100% 0.2 km
Mo, 05.12. 17:50 100% -
Mo, 05.12. 17:40 100% -
Mo, 05.12. 17:30 100% 0.2 km
Mo, 05.12. 17:00 99% 0.4 km
Mo, 05.12. 16:30 99% 5.0 km
Mo, 05.12. 16:00 99% 8 km
Mo, 05.12. 15:30 98% 15 km
Ortszeit Niederschlagsmenge Niederschlagsart
Mo, 05.12. 13:00 0.2 l/m2 in 6 Std. Sprühregen
Mo, 05.12. 7:00 4 l/m2 in 12 Std. Regen
Mo, 05.12. 1:00 4 l/m2 in 6 Std. Schnee, Regen
So, 04.12. 19:00 0.4 l/m2 in 12 Std. Regen
So, 04.12. 13:00 0.0 l/m2 in 6 Std. -
So, 04.12. 7:00 0.0 l/m2 in 12 Std. -
So, 04.12. 1:00 0.0 l/m2 in 6 Std. -
Sa, 03.12. 19:00 0.0 l/m2 in 12 Std. -
Ortszeit Niederschlagsmenge Niederschlagsart
Mo, 05.12. 18:30 0.1 l/m2 in 30 Min -
Mo, 05.12. 18:20 keine Meldung -
Mo, 05.12. 18:10 keine Meldung -
Mo, 05.12. 18:00 <0.05 l/m2 in 1 Std. Regen
Mo, 05.12. 17:50 keine Meldung -
Mo, 05.12. 17:40 keine Meldung -
Mo, 05.12. 17:30 <0.05 l/m2 in 30 Min -
Mo, 05.12. 17:00 <0.05 l/m2 in 1 Std. Sprühregen
Mo, 05.12. 16:30 <0.05 l/m2 in 30 Min Schnee
Mo, 05.12. 16:00 <0.05 l/m2 in 1 Std. Sprühregen
Mo, 05.12. 15:30 <0.05 l/m2 in 30 Min -
Ortszeit Stärke Spitze Richtung
km/h Bft. km/h Grad Sektor
Mo, 05.12. 13:00 17 3 24 220° SW
Mo, 05.12. 7:00 4 1 11 190° S
Mo, 05.12. 1:00 2 1 15 60° NO
So, 04.12. 19:00 11 2 22 60° NO
So, 04.12. 13:00 14 3 40 70° O
So, 04.12. 7:00 14 3 40 80° O
So, 04.12. 1:00 25 4 40 70° O
Sa, 03.12. 19:00 22 4 36 70° O
Ortszeit Stärke Spitze Richtung
km/h Bft. km/h Grad Sektor
Mo, 05.12. 18:30 11 2 20 270° W
Mo, 05.12. 18:20 11 2 - 270° W
Mo, 05.12. 18:10 11 2 - 260° W
Mo, 05.12. 18:00 11 2 22 240° SW
Mo, 05.12. 17:50 11 2 - 240° SW
Mo, 05.12. 17:40 11 2 - 240° SW
Mo, 05.12. 17:30 13 3 20 240° SW
Mo, 05.12. 17:00 11 2 18 240° SW
Mo, 05.12. 16:30 11 2 18 240° SW
Mo, 05.12. 16:00 11 2 22 240° SW
Mo, 05.12. 15:30 13 3 22 230° SW
Ortszeit Untergrenze Bedeckung Gattung
total tief tief mittel hoch
Mo, 05.12. 13:00 150 m 8/8 8/8 - - -
Mo, 05.12. 7:00 <30 m 8/8 0/8 - - -
Mo, 05.12. 1:00 <30 m 8/8 0/8 - - -
So, 04.12. 19:00 60 m 8/8 8/8 - - -
So, 04.12. 13:00 120 m 8/8 8/8 - - -
So, 04.12. 7:00 150 m 8/8 8/8 - - -
So, 04.12. 1:00 210 m 8/8 8/8 - - -
Sa, 03.12. 19:00 270 m 8/8 8/8 - - -
Ortszeit Bedeckungsgrad in Achtel und Wolkenuntergrenze
Mo, 05.12. 18:30 8(30m)
Mo, 05.12. 18:20 8(30m)
Mo, 05.12. 18:10 8
Mo, 05.12. 18:00 8(<30m)
Mo, 05.12. 17:50 8(<30m)
Mo, 05.12. 17:40 8
Mo, 05.12. 17:30 8(<30m)
Mo, 05.12. 17:00 7(30m)
Mo, 05.12. 16:30 8(120m)
Mo, 05.12. 16:00 8(150m)
Mo, 05.12. 15:30 8(150m)
Ortszeit Luftdruck NN (hPa) Tendenz (hPa in 3 Std.)
Mo, 05.12. 13:00 1019 + 0,4
Mo, 05.12. 7:00 1018 + 0,8
Mo, 05.12. 1:00 1017 + 1,1
So, 04.12. 19:00 1015 + 0,4
So, 04.12. 13:00 1015 - 0,7
So, 04.12. 7:00 1015 + 0,2
So, 04.12. 1:00 1015 - 1,1
Sa, 03.12. 19:00 1016 - 0,6
Ortszeit Luftdruck NN (hPa) Tendenz (hPa in 3 Std.)
Mo, 05.12. 18:30 1020 + 0,8
Mo, 05.12. 18:20 1020 keine Meldung
Mo, 05.12. 18:10 1020 keine Meldung
Mo, 05.12. 18:00 1020 + 0,6
Mo, 05.12. 17:50 1020 keine Meldung
Mo, 05.12. 17:40 1020 keine Meldung
Mo, 05.12. 17:30 1020 + 0,7
Mo, 05.12. 17:00 1020 + 0,4
Mo, 05.12. 16:30 1020 + 0,2
Mo, 05.12. 16:00 1020 + 0,4
Mo, 05.12. 15:30 1019 + 0,1
Ortszeit Schneehöhe (cm)
Mo, 05.12. 13:00 0
Mo, 05.12. 7:00 0
Mo, 05.12. 1:00 0
So, 04.12. 19:00 0
So, 04.12. 13:00 0
So, 04.12. 7:00 0
So, 04.12. 1:00 0
Sa, 03.12. 19:00 0
Ortszeit Schneehöhe (cm)
Mo, 05.12. 18:30 0
Mo, 05.12. 18:20 0
Mo, 05.12. 18:10 0
Mo, 05.12. 18:00 0
Mo, 05.12. 17:50 0
Mo, 05.12. 17:40 0
Mo, 05.12. 17:30 0
Mo, 05.12. 17:00 0
Mo, 05.12. 16:30 0
Mo, 05.12. 16:00 0
Mo, 05.12. 15:30 0
Link zu dieser Seite / Seite empfehlen

Das Wetter in ...